Carnesville, Georgia
Current Conditions -  °F | °C
As of 7:55 PM on Wednesday 17 Dec 2014 (Local Time) from KTOC Reporting Station
Clear Clear  
Wind Chill: 47°   Ceiling: Unl
Heat Index: 47°   Visibility: 10mi
Dew Point: 39°   Wind: 3mph
Humidity: 73%   Direction: 240°WSW
Pressure: 30.1"   Gusts: NA
Location:  34.37°N, 83.24°W
Report Text: KTOC 180055Z AUTO 24003KT 10SM CLR 09/04 A3010 RMK AO2 T00850040
Loading
Personal Weather Stations






























Interactive Weather Map New forecast layout! Learn more

10-Day Weather Forecast

Advertisements
Track Severe Weather on mobile